sensor_id;sensor_type;location;lat;lon;timestamp;P1;durP1;ratioP1;P2;durP2;ratioP2
52686;SDS011;38584;49.426;8.396;2024-03-08T00:02:22;31.75;;;19.00;;
52686;SDS011;38584;49.426;8.396;2024-03-08T00:04:51;33.08;;;19.20;;
52686;SDS011;38584;49.426;8.396;2024-03-08T00:07:19;30.85;;;18.77;;
52686;SDS011;38584;49.426;8.396;2024-03-08T00:09:45;31.52;;;18.80;;
52686;SDS011;38584;49.426;8.396;2024-03-08T00:12:10;35.20;;;19.13;;
52686;SDS011;38584;49.426;8.396;2024-03-08T00:14:35;34.20;;;17.95;;
52686;SDS011;38584;49.426;8.396;2024-03-08T00:17:02;33.53;;;18.75;;
52686;SDS011;38584;49.426;8.396;2024-03-08T00:19:28;40.33;;;19.70;;
52686;SDS011;38584;49.426;8.396;2024-03-08T00:21:53;32.25;;;18.10;;
52686;SDS011;38584;49.426;8.396;2024-03-08T00:24:20;34.65;;;19.48;;
52686;SDS011;38584;49.426;8.396;2024-03-08T00:26:53;33.40;;;18.85;;
52686;SDS011;38584;49.426;8.396;2024-03-08T00:29:19;37.00;;;19.20;;
52686;SDS011;38584;49.426;8.396;2024-03-08T00:31:44;34.00;;;19.52;;
52686;SDS011;38584;49.426;8.396;2024-03-08T00:34:09;32.75;;;19.00;;
52686;SDS011;38584;49.426;8.396;2024-03-08T00:36:36;35.15;;;18.52;;
52686;SDS011;38584;49.426;8.396;2024-03-08T00:39:02;34.75;;;19.17;;
52686;SDS011;38584;49.426;8.396;2024-03-08T00:41:31;34.90;;;19.00;;
52686;SDS011;38584;49.426;8.396;2024-03-08T00:43:56;32.97;;;19.15;;
52686;SDS011;38584;49.426;8.396;2024-03-08T00:46:22;35.47;;;18.83;;
52686;SDS011;38584;49.426;8.396;2024-03-08T00:48:47;32.60;;;18.85;;
52686;SDS011;38584;49.426;8.396;2024-03-08T00:51:12;32.55;;;18.83;;
52686;SDS011;38584;49.426;8.396;2024-03-08T00:53:40;32.40;;;17.58;;
52686;SDS011;38584;49.426;8.396;2024-03-08T00:56:05;35.13;;;19.17;;
52686;SDS011;38584;49.426;8.396;2024-03-08T00:58:30;31.25;;;18.65;;
52686;SDS011;38584;49.426;8.396;2024-03-08T01:00:56;33.88;;;19.08;;
52686;SDS011;38584;49.426;8.396;2024-03-08T01:03:25;34.17;;;18.88;;
52686;SDS011;38584;49.426;8.396;2024-03-08T01:05:50;35.45;;;19.25;;
52686;SDS011;38584;49.426;8.396;2024-03-08T01:08:19;31.90;;;18.25;;
52686;SDS011;38584;49.426;8.396;2024-03-08T01:10:44;34.05;;;17.85;;
52686;SDS011;38584;49.426;8.396;2024-03-08T01:13:09;30.95;;;17.55;;
52686;SDS011;38584;49.426;8.396;2024-03-08T01:15:35;33.90;;;18.23;;
52686;SDS011;38584;49.426;8.396;2024-03-08T01:18:00;38.35;;;18.95;;
52686;SDS011;38584;49.426;8.396;2024-03-08T01:20:26;35.28;;;19.05;;
52686;SDS011;38584;49.426;8.396;2024-03-08T01:22:55;32.70;;;18.35;;
52686;SDS011;38584;49.426;8.396;2024-03-08T01:25:20;34.28;;;18.67;;
52686;SDS011;38584;49.426;8.396;2024-03-08T01:27:45;32.60;;;18.45;;
52686;SDS011;38584;49.426;8.396;2024-03-08T01:30:17;35.25;;;18.63;;
52686;SDS011;38584;49.426;8.396;2024-03-08T01:32:42;35.20;;;18.75;;
52686;SDS011;38584;49.426;8.396;2024-03-08T01:35:09;34.63;;;19.17;;
52686;SDS011;38584;49.426;8.396;2024-03-08T01:37:34;31.83;;;17.95;;
52686;SDS011;38584;49.426;8.396;2024-03-08T01:40:02;33.17;;;17.17;;
52686;SDS011;38584;49.426;8.396;2024-03-08T01:42:28;32.22;;;18.08;;
52686;SDS011;38584;49.426;8.396;2024-03-08T01:44:54;36.22;;;18.70;;
52686;SDS011;38584;49.426;8.396;2024-03-08T01:47:22;33.08;;;17.58;;
52686;SDS011;38584;49.426;8.396;2024-03-08T01:49:53;40.42;;;19.17;;
52686;SDS011;38584;49.426;8.396;2024-03-08T01:52:19;34.72;;;18.20;;
52686;SDS011;38584;49.426;8.396;2024-03-08T01:54:45;33.72;;;18.42;;
52686;SDS011;38584;49.426;8.396;2024-03-08T01:57:11;31.98;;;18.23;;
52686;SDS011;38584;49.426;8.396;2024-03-08T01:59:36;32.95;;;18.33;;
52686;SDS011;38584;49.426;8.396;2024-03-08T02:02:05;35.00;;;19.52;;
52686;SDS011;38584;49.426;8.396;2024-03-08T02:04:31;30.98;;;17.17;;
52686;SDS011;38584;49.426;8.396;2024-03-08T02:06:56;34.05;;;19.23;;
52686;SDS011;38584;49.426;8.396;2024-03-08T02:09:23;32.05;;;17.13;;
52686;SDS011;38584;49.426;8.396;2024-03-08T02:11:49;33.03;;;19.55;;
52686;SDS011;38584;49.426;8.396;2024-03-08T02:14:15;33.60;;;19.73;;
52686;SDS011;38584;49.426;8.396;2024-03-08T02:16:40;34.10;;;19.05;;
52686;SDS011;38584;49.426;8.396;2024-03-08T02:19:06;33.58;;;19.00;;
52686;SDS011;38584;49.426;8.396;2024-03-08T02:21:34;38.40;;;20.27;;
52686;SDS011;38584;49.426;8.396;2024-03-08T02:24:00;32.67;;;18.25;;
52686;SDS011;38584;49.426;8.396;2024-03-08T02:26:25;32.88;;;18.48;;
52686;SDS011;38584;49.426;8.396;2024-03-08T02:28:53;34.00;;;18.60;;
52686;SDS011;38584;49.426;8.396;2024-03-08T02:31:19;33.92;;;18.63;;
52686;SDS011;38584;49.426;8.396;2024-03-08T02:33:47;37.45;;;19.55;;
52686;SDS011;38584;49.426;8.396;2024-03-08T02:36:12;34.85;;;19.20;;
52686;SDS011;38584;49.426;8.396;2024-03-08T02:38:38;34.53;;;19.40;;
52686;SDS011;38584;49.426;8.396;2024-03-08T02:41:05;35.55;;;19.23;;
52686;SDS011;38584;49.426;8.396;2024-03-08T02:43:31;35.30;;;17.70;;
52686;SDS011;38584;49.426;8.396;2024-03-08T02:45:56;32.55;;;17.58;;
52686;SDS011;38584;49.426;8.396;2024-03-08T02:48:24;37.88;;;17.90;;
52686;SDS011;38584;49.426;8.396;2024-03-08T02:50:50;30.27;;;17.73;;
52686;SDS011;38584;49.426;8.396;2024-03-08T02:53:16;33.80;;;17.70;;
52686;SDS011;38584;49.426;8.396;2024-03-08T02:55:41;39.15;;;18.55;;
52686;SDS011;38584;49.426;8.396;2024-03-08T02:58:07;32.92;;;18.05;;
52686;SDS011;38584;49.426;8.396;2024-03-08T03:00:36;32.00;;;17.33;;
52686;SDS011;38584;49.426;8.396;2024-03-08T03:03:01;32.65;;;17.98;;
52686;SDS011;38584;49.426;8.396;2024-03-08T03:05:28;35.38;;;18.00;;
52686;SDS011;38584;49.426;8.396;2024-03-08T03:07:57;33.42;;;18.33;;
52686;SDS011;38584;49.426;8.396;2024-03-08T03:10:23;36.70;;;19.52;;
52686;SDS011;38584;49.426;8.396;2024-03-08T03:12:52;35.10;;;19.35;;
52686;SDS011;38584;49.426;8.396;2024-03-08T03:15:18;33.40;;;17.38;;
52686;SDS011;38584;49.426;8.396;2024-03-08T03:17:47;31.08;;;17.13;;
52686;SDS011;38584;49.426;8.396;2024-03-08T03:20:13;32.28;;;17.92;;
52686;SDS011;38584;49.426;8.396;2024-03-08T03:22:44;35.38;;;18.33;;
52686;SDS011;38584;49.426;8.396;2024-03-08T03:25:12;35.47;;;18.42;;
52686;SDS011;38584;49.426;8.396;2024-03-08T03:27:40;35.03;;;18.40;;
52686;SDS011;38584;49.426;8.396;2024-03-08T03:30:07;34.17;;;18.40;;
52686;SDS011;38584;49.426;8.396;2024-03-08T03:32:58;34.25;;;18.15;;
52686;SDS011;38584;49.426;8.396;2024-03-08T03:35:25;35.47;;;17.60;;
52686;SDS011;38584;49.426;8.396;2024-03-08T03:37:56;33.90;;;18.30;;
52686;SDS011;38584;49.426;8.396;2024-03-08T03:40:32;37.15;;;18.90;;
52686;SDS011;38584;49.426;8.396;2024-03-08T03:42:58;35.83;;;17.98;;
52686;SDS011;38584;49.426;8.396;2024-03-08T03:45:23;36.72;;;18.67;;
52686;SDS011;38584;49.426;8.396;2024-03-08T03:47:49;37.75;;;19.55;;
52686;SDS011;38584;49.426;8.396;2024-03-08T03:50:14;37.47;;;18.45;;
52686;SDS011;38584;49.426;8.396;2024-03-08T03:52:40;32.92;;;17.95;;
52686;SDS011;38584;49.426;8.396;2024-03-08T03:55:13;38.22;;;18.80;;
52686;SDS011;38584;49.426;8.396;2024-03-08T03:57:39;36.28;;;18.83;;
52686;SDS011;38584;49.426;8.396;2024-03-08T04:00:08;36.83;;;19.40;;
52686;SDS011;38584;49.426;8.396;2024-03-08T04:02:37;38.17;;;19.80;;
52686;SDS011;38584;49.426;8.396;2024-03-08T04:05:03;33.30;;;18.67;;
52686;SDS011;38584;49.426;8.396;2024-03-08T04:07:32;35.35;;;19.58;;
52686;SDS011;38584;49.426;8.396;2024-03-08T04:09:58;35.58;;;19.77;;
52686;SDS011;38584;49.426;8.396;2024-03-08T04:12:23;33.20;;;17.75;;
52686;SDS011;38584;49.426;8.396;2024-03-08T04:14:49;33.58;;;17.98;;
52686;SDS011;38584;49.426;8.396;2024-03-08T04:17:17;35.92;;;18.83;;
52686;SDS011;38584;49.426;8.396;2024-03-08T04:19:43;36.80;;;19.20;;
52686;SDS011;38584;49.426;8.396;2024-03-08T04:22:08;34.67;;;19.05;;
52686;SDS011;38584;49.426;8.396;2024-03-08T04:24:34;36.45;;;18.70;;
52686;SDS011;38584;49.426;8.396;2024-03-08T04:26:59;32.65;;;18.38;;
52686;SDS011;38584;49.426;8.396;2024-03-08T04:29:24;35.80;;;19.27;;
52686;SDS011;38584;49.426;8.396;2024-03-08T04:31:50;32.28;;;18.17;;
52686;SDS011;38584;49.426;8.396;2024-03-08T04:34:19;36.55;;;19.52;;
52686;SDS011;38584;49.426;8.396;2024-03-08T04:36:48;38.63;;;19.08;;
52686;SDS011;38584;49.426;8.396;2024-03-08T04:39:13;37.17;;;19.60;;
52686;SDS011;38584;49.426;8.396;2024-03-08T04:41:43;34.42;;;19.42;;
52686;SDS011;38584;49.426;8.396;2024-03-08T04:44:11;35.97;;;18.60;;
52686;SDS011;38584;49.426;8.396;2024-03-08T04:46:37;37.80;;;19.25;;
52686;SDS011;38584;49.426;8.396;2024-03-08T04:49:03;37.30;;;19.08;;
52686;SDS011;38584;49.426;8.396;2024-03-08T04:51:28;38.20;;;18.85;;
52686;SDS011;38584;49.426;8.396;2024-03-08T04:53:54;39.97;;;19.48;;
52686;SDS011;38584;49.426;8.396;2024-03-08T04:56:19;36.58;;;19.52;;
52686;SDS011;38584;49.426;8.396;2024-03-08T04:58:45;37.85;;;19.15;;
52686;SDS011;38584;49.426;8.396;2024-03-08T05:01:12;35.30;;;19.02;;
52686;SDS011;38584;49.426;8.396;2024-03-08T05:03:37;35.45;;;19.17;;
52686;SDS011;38584;49.426;8.396;2024-03-08T05:06:03;34.83;;;18.45;;
52686;SDS011;38584;49.426;8.396;2024-03-08T05:08:31;39.53;;;18.92;;
52686;SDS011;38584;49.426;8.396;2024-03-08T05:10:58;34.63;;;18.75;;
52686;SDS011;38584;49.426;8.396;2024-03-08T05:13:23;41.17;;;19.75;;
52686;SDS011;38584;49.426;8.396;2024-03-08T05:15:49;35.28;;;18.75;;
52686;SDS011;38584;49.426;8.396;2024-03-08T05:18:17;33.83;;;18.88;;
52686;SDS011;38584;49.426;8.396;2024-03-08T05:20:43;35.72;;;18.20;;
52686;SDS011;38584;49.426;8.396;2024-03-08T05:23:08;32.70;;;19.52;;
52686;SDS011;38584;49.426;8.396;2024-03-08T05:25:34;34.85;;;18.17;;
52686;SDS011;38584;49.426;8.396;2024-03-08T05:27:59;37.13;;;19.13;;
52686;SDS011;38584;49.426;8.396;2024-03-08T05:30:24;35.70;;;19.98;;
52686;SDS011;38584;49.426;8.396;2024-03-08T05:32:50;36.40;;;19.13;;
52686;SDS011;38584;49.426;8.396;2024-03-08T05:35:15;34.90;;;19.33;;
52686;SDS011;38584;49.426;8.396;2024-03-08T05:37:41;38.00;;;20.33;;
52686;SDS011;38584;49.426;8.396;2024-03-08T05:40:07;35.80;;;19.85;;
52686;SDS011;38584;49.426;8.396;2024-03-08T05:42:37;37.47;;;19.75;;
52686;SDS011;38584;49.426;8.396;2024-03-08T05:45:06;37.67;;;19.88;;
52686;SDS011;38584;49.426;8.396;2024-03-08T05:47:32;39.70;;;20.08;;
52686;SDS011;38584;49.426;8.396;2024-03-08T05:50:00;40.80;;;20.15;;
52686;SDS011;38584;49.426;8.396;2024-03-08T05:52:25;37.95;;;19.40;;
52686;SDS011;38584;49.426;8.396;2024-03-08T05:54:51;38.15;;;19.60;;
52686;SDS011;38584;49.426;8.396;2024-03-08T05:57:16;35.13;;;19.40;;
52686;SDS011;38584;49.426;8.396;2024-03-08T05:59:45;38.63;;;20.58;;
52686;SDS011;38584;49.426;8.396;2024-03-08T06:02:10;35.53;;;19.63;;
52686;SDS011;38584;49.426;8.396;2024-03-08T06:04:36;39.85;;;20.70;;
52686;SDS011;38584;49.426;8.396;2024-03-08T06:07:01;39.95;;;21.10;;
52686;SDS011;38584;49.426;8.396;2024-03-08T06:09:28;40.97;;;20.75;;
52686;SDS011;38584;49.426;8.396;2024-03-08T06:11:53;36.63;;;19.58;;
52686;SDS011;38584;49.426;8.396;2024-03-08T06:14:19;38.10;;;19.27;;
52686;SDS011;38584;49.426;8.396;2024-03-08T06:16:45;36.38;;;20.45;;
52686;SDS011;38584;49.426;8.396;2024-03-08T06:19:10;41.75;;;20.05;;
52686;SDS011;38584;49.426;8.396;2024-03-08T06:21:37;39.05;;;20.17;;
52686;SDS011;38584;49.426;8.396;2024-03-08T06:24:02;39.85;;;20.83;;
52686;SDS011;38584;49.426;8.396;2024-03-08T06:26:27;37.80;;;20.52;;
52686;SDS011;38584;49.426;8.396;2024-03-08T06:28:53;37.45;;;20.60;;
52686;SDS011;38584;49.426;8.396;2024-03-08T06:31:19;36.92;;;20.35;;
52686;SDS011;38584;49.426;8.396;2024-03-08T06:33:44;37.38;;;20.85;;
52686;SDS011;38584;49.426;8.396;2024-03-08T06:36:11;41.20;;;20.83;;
52686;SDS011;38584;49.426;8.396;2024-03-08T06:38:37;36.45;;;18.90;;
52686;SDS011;38584;49.426;8.396;2024-03-08T06:41:07;36.75;;;19.42;;
52686;SDS011;38584;49.426;8.396;2024-03-08T06:43:33;36.40;;;19.83;;
52686;SDS011;38584;49.426;8.396;2024-03-08T06:45:59;38.72;;;20.20;;
52686;SDS011;38584;49.426;8.396;2024-03-08T06:48:24;42.45;;;21.13;;
52686;SDS011;38584;49.426;8.396;2024-03-08T06:50:50;39.67;;;20.98;;
52686;SDS011;38584;49.426;8.396;2024-03-08T06:53:15;39.97;;;19.65;;
52686;SDS011;38584;49.426;8.396;2024-03-08T06:55:42;38.65;;;20.85;;
52686;SDS011;38584;49.426;8.396;2024-03-08T06:58:09;39.60;;;20.55;;
52686;SDS011;38584;49.426;8.396;2024-03-08T07:00:35;37.78;;;21.00;;
52686;SDS011;38584;49.426;8.396;2024-03-08T07:03:01;37.00;;;20.13;;
52686;SDS011;38584;49.426;8.396;2024-03-08T07:05:27;36.22;;;19.65;;
52686;SDS011;38584;49.426;8.396;2024-03-08T07:07:52;39.15;;;20.38;;
52686;SDS011;38584;49.426;8.396;2024-03-08T07:10:19;36.35;;;20.42;;
52686;SDS011;38584;49.426;8.396;2024-03-08T07:12:45;41.25;;;20.33;;
52686;SDS011;38584;49.426;8.396;2024-03-08T07:15:11;38.75;;;21.33;;
52686;SDS011;38584;49.426;8.396;2024-03-08T07:17:40;36.38;;;19.58;;
52686;SDS011;38584;49.426;8.396;2024-03-08T07:20:06;36.92;;;20.10;;
52686;SDS011;38584;49.426;8.396;2024-03-08T07:22:37;36.58;;;19.88;;
52686;SDS011;38584;49.426;8.396;2024-03-08T07:25:03;41.22;;;19.88;;
52686;SDS011;38584;49.426;8.396;2024-03-08T07:27:46;38.30;;;21.02;;
52686;SDS011;38584;49.426;8.396;2024-03-08T07:30:16;38.22;;;20.40;;
52686;SDS011;38584;49.426;8.396;2024-03-08T07:33:00;37.85;;;20.63;;
52686;SDS011;38584;49.426;8.396;2024-03-08T07:35:27;37.53;;;20.88;;
52686;SDS011;38584;49.426;8.396;2024-03-08T07:37:53;36.08;;;19.60;;
52686;SDS011;38584;49.426;8.396;2024-03-08T07:40:20;38.88;;;19.40;;
52686;SDS011;38584;49.426;8.396;2024-03-08T07:42:45;34.42;;;19.70;;
52686;SDS011;38584;49.426;8.396;2024-03-08T07:45:11;35.42;;;19.50;;
52686;SDS011;38584;49.426;8.396;2024-03-08T07:47:37;36.67;;;20.38;;
52686;SDS011;38584;49.426;8.396;2024-03-08T07:50:03;32.20;;;18.80;;
52686;SDS011;38584;49.426;8.396;2024-03-08T07:52:28;40.92;;;19.50;;
52686;SDS011;38584;49.426;8.396;2024-03-08T07:54:54;35.78;;;19.35;;
52686;SDS011;38584;49.426;8.396;2024-03-08T07:57:19;34.25;;;19.33;;
52686;SDS011;38584;49.426;8.396;2024-03-08T07:59:45;37.72;;;19.83;;
52686;SDS011;38584;49.426;8.396;2024-03-08T08:02:10;34.92;;;19.23;;
52686;SDS011;38584;49.426;8.396;2024-03-08T08:04:35;35.75;;;17.17;;
52686;SDS011;38584;49.426;8.396;2024-03-08T08:07:01;35.00;;;19.45;;
52686;SDS011;38584;49.426;8.396;2024-03-08T08:09:26;36.75;;;20.30;;
52686;SDS011;38584;49.426;8.396;2024-03-08T08:11:59;35.67;;;18.75;;
52686;SDS011;38584;49.426;8.396;2024-03-08T08:14:26;31.75;;;18.27;;
52686;SDS011;38584;49.426;8.396;2024-03-08T08:16:52;35.50;;;19.92;;
52686;SDS011;38584;49.426;8.396;2024-03-08T08:19:17;35.30;;;19.15;;
52686;SDS011;38584;49.426;8.396;2024-03-08T08:21:43;36.80;;;18.83;;
52686;SDS011;38584;49.426;8.396;2024-03-08T08:24:09;34.70;;;18.60;;
52686;SDS011;38584;49.426;8.396;2024-03-08T08:26:35;33.13;;;17.13;;
52686;SDS011;38584;49.426;8.396;2024-03-08T08:29:01;34.45;;;18.90;;
52686;SDS011;38584;49.426;8.396;2024-03-08T08:31:26;32.30;;;17.10;;
52686;SDS011;38584;49.426;8.396;2024-03-08T08:33:52;35.78;;;19.08;;
52686;SDS011;38584;49.426;8.396;2024-03-08T08:36:26;37.20;;;19.88;;
52686;SDS011;38584;49.426;8.396;2024-03-08T08:38:51;35.28;;;19.38;;
52686;SDS011;38584;49.426;8.396;2024-03-08T08:41:19;34.40;;;18.92;;
52686;SDS011;38584;49.426;8.396;2024-03-08T08:43:46;35.33;;;18.80;;
52686;SDS011;38584;49.426;8.396;2024-03-08T08:46:12;34.85;;;19.75;;
52686;SDS011;38584;49.426;8.396;2024-03-08T08:48:38;33.58;;;19.45;;
52686;SDS011;38584;49.426;8.396;2024-03-08T08:51:06;35.83;;;19.35;;
52686;SDS011;38584;49.426;8.396;2024-03-08T08:53:37;37.25;;;19.90;;
52686;SDS011;38584;49.426;8.396;2024-03-08T08:56:02;32.30;;;18.58;;
52686;SDS011;38584;49.426;8.396;2024-03-08T08:58:28;35.28;;;18.52;;
52686;SDS011;38584;49.426;8.396;2024-03-08T09:00:53;33.00;;;19.30;;
52686;SDS011;38584;49.426;8.396;2024-03-08T09:03:18;31.65;;;18.75;;
52686;SDS011;38584;49.426;8.396;2024-03-08T09:05:44;36.83;;;18.65;;
52686;SDS011;38584;49.426;8.396;2024-03-08T09:08:09;33.83;;;18.75;;
52686;SDS011;38584;49.426;8.396;2024-03-08T09:10:34;32.63;;;17.83;;
52686;SDS011;38584;49.426;8.396;2024-03-08T09:13:00;30.05;;;18.10;;
52686;SDS011;38584;49.426;8.396;2024-03-08T09:15:25;33.92;;;18.40;;
52686;SDS011;38584;49.426;8.396;2024-03-08T09:17:53;32.80;;;18.67;;
52686;SDS011;38584;49.426;8.396;2024-03-08T09:20:19;32.80;;;19.27;;
52686;SDS011;38584;49.426;8.396;2024-03-08T09:22:45;34.20;;;18.50;;
52686;SDS011;38584;49.426;8.396;2024-03-08T09:25:11;32.63;;;18.50;;
52686;SDS011;38584;49.426;8.396;2024-03-08T09:27:36;32.45;;;18.27;;
52686;SDS011;38584;49.426;8.396;2024-03-08T09:30:02;30.00;;;18.02;;
52686;SDS011;38584;49.426;8.396;2024-03-08T09:32:29;32.25;;;18.85;;
52686;SDS011;38584;49.426;8.396;2024-03-08T09:34:55;33.15;;;18.15;;
52686;SDS011;38584;49.426;8.396;2024-03-08T09:37:21;32.15;;;18.15;;
52686;SDS011;38584;49.426;8.396;2024-03-08T09:39:46;31.75;;;17.63;;
52686;SDS011;38584;49.426;8.396;2024-03-08T09:42:11;29.05;;;16.80;;
52686;SDS011;38584;49.426;8.396;2024-03-08T09:44:43;31.98;;;18.70;;
52686;SDS011;38584;49.426;8.396;2024-03-08T09:47:11;32.90;;;18.77;;
52686;SDS011;38584;49.426;8.396;2024-03-08T09:49:38;30.27;;;14.80;;
52686;SDS011;38584;49.426;8.396;2024-03-08T09:52:04;36.55;;;17.33;;
52686;SDS011;38584;49.426;8.396;2024-03-08T09:54:30;34.05;;;17.40;;
52686;SDS011;38584;49.426;8.396;2024-03-08T09:56:56;32.28;;;17.42;;
52686;SDS011;38584;49.426;8.396;2024-03-08T09:59:21;33.47;;;19.67;;
52686;SDS011;38584;49.426;8.396;2024-03-08T10:01:52;29.95;;;17.23;;
52686;SDS011;38584;49.426;8.396;2024-03-08T10:04:21;29.45;;;16.98;;
52686;SDS011;38584;49.426;8.396;2024-03-08T10:06:47;29.67;;;16.95;;
52686;SDS011;38584;49.426;8.396;2024-03-08T10:09:12;30.27;;;17.05;;
52686;SDS011;38584;49.426;8.396;2024-03-08T10:11:38;29.70;;;15.98;;
52686;SDS011;38584;49.426;8.396;2024-03-08T10:14:05;29.52;;;16.38;;
52686;SDS011;38584;49.426;8.396;2024-03-08T10:16:31;26.35;;;12.27;;
52686;SDS011;38584;49.426;8.396;2024-03-08T10:18:56;28.17;;;16.83;;
52686;SDS011;38584;49.426;8.396;2024-03-08T10:21:22;30.25;;;17.17;;
52686;SDS011;38584;49.426;8.396;2024-03-08T10:23:47;28.60;;;17.08;;
52686;SDS011;38584;49.426;8.396;2024-03-08T10:26:13;28.83;;;17.27;;
52686;SDS011;38584;49.426;8.396;2024-03-08T10:28:40;27.52;;;16.80;;
52686;SDS011;38584;49.426;8.396;2024-03-08T10:31:06;34.22;;;16.73;;
52686;SDS011;38584;49.426;8.396;2024-03-08T10:33:32;27.58;;;15.82;;
52686;SDS011;38584;49.426;8.396;2024-03-08T10:35:58;29.77;;;16.70;;
52686;SDS011;38584;49.426;8.396;2024-03-08T10:38:23;28.73;;;16.33;;
52686;SDS011;38584;49.426;8.396;2024-03-08T10:40:50;28.02;;;15.55;;
52686;SDS011;38584;49.426;8.396;2024-03-08T10:43:26;32.78;;;18.23;;
52686;SDS011;38584;49.426;8.396;2024-03-08T10:46:00;28.48;;;15.65;;
52686;SDS011;38584;49.426;8.396;2024-03-08T10:48:50;29.15;;;16.27;;
52686;SDS011;38584;49.426;8.396;2024-03-08T10:51:17;31.05;;;16.45;;
52686;SDS011;38584;49.426;8.396;2024-03-08T10:53:44;30.38;;;15.48;;
52686;SDS011;38584;49.426;8.396;2024-03-08T10:56:11;28.42;;;16.58;;
52686;SDS011;38584;49.426;8.396;2024-03-08T10:58:39;27.40;;;16.15;;
52686;SDS011;38584;49.426;8.396;2024-03-08T11:01:05;27.67;;;16.20;;
52686;SDS011;38584;49.426;8.396;2024-03-08T11:04:04;26.48;;;15.02;;
52686;SDS011;38584;49.426;8.396;2024-03-08T11:06:29;27.42;;;15.32;;
52686;SDS011;38584;49.426;8.396;2024-03-08T11:08:56;27.20;;;16.13;;
52686;SDS011;38584;49.426;8.396;2024-03-08T11:13:52;28.75;;;17.38;;
52686;SDS011;38584;49.426;8.396;2024-03-08T11:18:59;26.52;;;15.32;;
52686;SDS011;38584;49.426;8.396;2024-03-08T11:21:45;29.48;;;16.02;;
52686;SDS011;38584;49.426;8.396;2024-03-08T11:24:11;26.10;;;14.10;;
52686;SDS011;38584;49.426;8.396;2024-03-08T11:26:38;27.75;;;15.02;;
52686;SDS011;38584;49.426;8.396;2024-03-08T11:34:35;26.75;;;16.48;;
52686;SDS011;38584;49.426;8.396;2024-03-08T11:37:00;29.70;;;17.23;;
52686;SDS011;38584;49.426;8.396;2024-03-08T11:39:28;27.45;;;15.63;;
52686;SDS011;38584;49.426;8.396;2024-03-08T11:41:55;30.55;;;17.08;;
52686;SDS011;38584;49.426;8.396;2024-03-08T11:44:21;27.88;;;15.20;;
52686;SDS011;38584;49.426;8.396;2024-03-08T11:46:46;27.15;;;16.17;;
52686;SDS011;38584;49.426;8.396;2024-03-08T11:49:13;28.73;;;16.83;;
52686;SDS011;38584;49.426;8.396;2024-03-08T11:51:38;29.13;;;16.27;;
52686;SDS011;38584;49.426;8.396;2024-03-08T11:54:04;27.50;;;15.90;;
52686;SDS011;38584;49.426;8.396;2024-03-08T11:56:31;29.55;;;15.77;;
52686;SDS011;38584;49.426;8.396;2024-03-08T11:58:57;26.17;;;15.75;;
52686;SDS011;38584;49.426;8.396;2024-03-08T12:01:22;24.95;;;16.13;;
52686;SDS011;38584;49.426;8.396;2024-03-08T12:03:57;25.55;;;15.32;;
52686;SDS011;38584;49.426;8.396;2024-03-08T12:06:25;23.90;;;14.82;;
52686;SDS011;38584;49.426;8.396;2024-03-08T12:08:51;25.67;;;15.40;;
52686;SDS011;38584;49.426;8.396;2024-03-08T12:11:18;26.67;;;15.85;;
52686;SDS011;38584;49.426;8.396;2024-03-08T12:13:48;24.80;;;14.90;;
52686;SDS011;38584;49.426;8.396;2024-03-08T12:16:15;25.30;;;14.93;;
52686;SDS011;38584;49.426;8.396;2024-03-08T12:18:42;23.17;;;14.63;;
52686;SDS011;38584;49.426;8.396;2024-03-08T12:21:09;26.08;;;15.40;;
52686;SDS011;38584;49.426;8.396;2024-03-08T12:23:36;26.35;;;15.70;;
52686;SDS011;38584;49.426;8.396;2024-03-08T12:26:14;27.05;;;16.02;;
52686;SDS011;38584;49.426;8.396;2024-03-08T12:28:41;25.13;;;15.25;;
52686;SDS011;38584;49.426;8.396;2024-03-08T12:31:09;23.33;;;14.75;;
52686;SDS011;38584;49.426;8.396;2024-03-08T12:33:52;24.40;;;15.45;;
52686;SDS011;38584;49.426;8.396;2024-03-08T12:36:20;28.65;;;15.55;;
52686;SDS011;38584;49.426;8.396;2024-03-08T12:38:48;26.33;;;15.07;;
52686;SDS011;38584;49.426;8.396;2024-03-08T12:41:17;22.70;;;14.60;;
52686;SDS011;38584;49.426;8.396;2024-03-08T12:43:44;23.77;;;14.15;;
52686;SDS011;38584;49.426;8.396;2024-03-08T12:46:22;25.27;;;15.85;;
52686;SDS011;38584;49.426;8.396;2024-03-08T12:48:51;24.83;;;15.65;;
52686;SDS011;38584;49.426;8.396;2024-03-08T12:51:18;24.38;;;15.45;;
52686;SDS011;38584;49.426;8.396;2024-03-08T12:53:45;25.88;;;16.13;;
52686;SDS011;38584;49.426;8.396;2024-03-08T12:56:11;24.70;;;15.23;;
52686;SDS011;38584;49.426;8.396;2024-03-08T12:58:37;25.98;;;16.70;;
52686;SDS011;38584;49.426;8.396;2024-03-08T13:01:03;25.20;;;14.90;;
52686;SDS011;38584;49.426;8.396;2024-03-08T13:03:35;24.02;;;14.70;;
52686;SDS011;38584;49.426;8.396;2024-03-08T13:06:04;24.88;;;15.13;;
52686;SDS011;38584;49.426;8.396;2024-03-08T13:08:36;25.92;;;16.25;;
52686;SDS011;38584;49.426;8.396;2024-03-08T13:11:04;24.00;;;14.68;;
52686;SDS011;38584;49.426;8.396;2024-03-08T13:13:29;24.10;;;15.93;;
52686;SDS011;38584;49.426;8.396;2024-03-08T13:15:55;23.48;;;15.27;;
52686;SDS011;38584;49.426;8.396;2024-03-08T13:18:21;25.45;;;15.50;;
52686;SDS011;38584;49.426;8.396;2024-03-08T13:20:47;25.52;;;16.27;;
52686;SDS011;38584;49.426;8.396;2024-03-08T13:23:16;24.27;;;16.23;;
52686;SDS011;38584;49.426;8.396;2024-03-08T13:25:42;23.80;;;15.90;;
52686;SDS011;38584;49.426;8.396;2024-03-08T13:28:08;26.02;;;17.45;;
52686;SDS011;38584;49.426;8.396;2024-03-08T13:30:33;26.40;;;16.50;;
52686;SDS011;38584;49.426;8.396;2024-03-08T13:33:00;24.20;;;15.43;;
52686;SDS011;38584;49.426;8.396;2024-03-08T13:35:25;24.48;;;15.85;;
52686;SDS011;38584;49.426;8.396;2024-03-08T13:37:52;22.10;;;14.70;;
52686;SDS011;38584;49.426;8.396;2024-03-08T13:40:18;27.35;;;15.35;;
52686;SDS011;38584;49.426;8.396;2024-03-08T13:42:46;23.92;;;15.43;;
52686;SDS011;38584;49.426;8.396;2024-03-08T13:45:13;22.95;;;15.55;;
52686;SDS011;38584;49.426;8.396;2024-03-08T13:47:42;22.95;;;15.35;;
52686;SDS011;38584;49.426;8.396;2024-03-08T13:50:08;24.25;;;14.93;;
52686;SDS011;38584;49.426;8.396;2024-03-08T13:52:38;23.05;;;15.63;;
52686;SDS011;38584;49.426;8.396;2024-03-08T13:55:04;24.08;;;15.82;;
52686;SDS011;38584;49.426;8.396;2024-03-08T13:57:30;23.98;;;15.15;;
52686;SDS011;38584;49.426;8.396;2024-03-08T13:59:57;22.33;;;15.40;;
52686;SDS011;38584;49.426;8.396;2024-03-08T14:02:22;23.02;;;16.27;;
52686;SDS011;38584;49.426;8.396;2024-03-08T14:04:52;23.48;;;16.63;;
52686;SDS011;38584;49.426;8.396;2024-03-08T14:07:18;23.58;;;15.63;;
52686;SDS011;38584;49.426;8.396;2024-03-08T14:09:43;23.35;;;16.58;;
52686;SDS011;38584;49.426;8.396;2024-03-08T14:12:09;23.52;;;15.45;;
52686;SDS011;38584;49.426;8.396;2024-03-08T14:14:38;25.15;;;16.55;;
52686;SDS011;38584;49.426;8.396;2024-03-08T14:17:04;25.95;;;15.88;;
52686;SDS011;38584;49.426;8.396;2024-03-08T14:19:29;26.77;;;18.88;;
52686;SDS011;38584;49.426;8.396;2024-03-08T14:21:58;29.90;;;21.10;;
52686;SDS011;38584;49.426;8.396;2024-03-08T14:24:24;23.48;;;15.70;;
52686;SDS011;38584;49.426;8.396;2024-03-08T14:26:50;22.90;;;15.30;;
52686;SDS011;38584;49.426;8.396;2024-03-08T14:29:22;24.13;;;16.13;;
52686;SDS011;38584;49.426;8.396;2024-03-08T14:31:48;24.17;;;16.05;;